< Typhoon 199026 1990 Season Typhoon 199028 >
Typhoon 199027 (OWEN)
General InformationTrack Information on Google MapsDetailed Wind InformationList of All Images || Disaster Info.ResourceGoogle EarthGE AnimationAtom FeedGeoJSON
Detalied Best Track (Time Zone = UTC)
Year Month Day Hour Lat. Long. Pressure (hPa) Wind (kt) Class Image Chart
1990 11 20 06 9.0 172.0 1004 0 2 Image Chart
1990 11 20 12 9.0 170.5 1004 0 2 Image Chart
1990 11 20 18 9.5 169.0 1002 0 2 Image Chart
1990 11 21 00 10.0 168.0 998 35 3 Image Chart
1990 11 21 06 10.0 167.0 996 40 3 Image Chart
1990 11 21 12 10.2 165.8 992 45 3 Image Chart
1990 11 21 18 10.2 164.8 980 55 4 Image Chart
1990 11 22 00 10.2 163.9 970 65 5 Image Chart
1990 11 22 06 10.1 163.2 965 70 5 Image Chart
1990 11 22 12 9.9 162.5 960 75 5 Image Chart
1990 11 22 18 9.5 162.1 955 75 5 Image Chart
1990 11 23 00 9.2 161.8 950 80 5 Image Chart
1990 11 23 06 8.8 161.4 940 85 5 Image Chart
1990 11 23 12 8.8 161.2 935 90 5 Image Chart
1990 11 23 18 8.7 160.9 935 90 5 Image Chart
1990 11 24 00 8.7 160.6 935 90 5 Image Chart
1990 11 24 06 8.9 160.2 940 90 5 Image Chart
1990 11 24 12 9.1 159.8 950 80 5 Image Chart
1990 11 24 18 9.2 159.4 960 75 5 Image Chart
1990 11 25 00 9.2 158.8 965 70 5 Image Chart
1990 11 25 06 9.1 158.2 965 70 5 Image Chart
1990 11 25 12 9.0 157.6 965 70 5 Image Chart
1990 11 25 18 8.8 157.0 965 70 5 Image Chart
1990 11 26 00 8.7 156.5 960 70 5 Image Chart
1990 11 26 06 8.5 155.7 955 75 5 Image Chart
1990 11 26 12 8.4 155.0 950 80 5 Image Chart
1990 11 26 18 8.3 154.2 940 85 5 Image Chart
1990 11 27 00 8.3 153.4 930 90 5 Image Chart
1990 11 27 06 8.3 152.1 925 95 5 Image Chart
1990 11 27 12 8.3 150.8 930 95 5 Image Chart
1990 11 27 18 8.1 149.4 930 90 5 Image Chart
1990 11 28 00 7.8 148.0 935 90 5 Image Chart
1990 11 28 06 7.7 146.7 940 85 5 Image Chart
1990 11 28 12 7.4 145.6 940 85 5 Image Chart
1990 11 28 18 7.7 144.5 940 85 5 Image Chart
1990 11 29 00 8.2 143.4 945 85 5 Image Chart
1990 11 29 06 9.0 142.6 950 80 5 Image Chart
1990 11 29 12 9.6 141.9 955 75 5 Image Chart
1990 11 29 18 10.3 141.3 960 75 5 Image Chart
1990 11 30 00 11.1 140.8 970 65 5 Image Chart
1990 11 30 06 11.9 140.0 980 55 4 Image Chart
1990 11 30 12 12.5 139.5 990 45 3 Image Chart
1990 11 30 18 13.1 139.0 996 40 3 Image Chart
1990 12 1 00 13.5 138.5 998 35 3 Image Chart
1990 12 1 06 13.8 137.9 1000 0 2 Image Chart
1990 12 1 12 14.0 137.3 1002 0 2 Image Chart
1990 12 1 18 14.1 136.6 1002 0 2 Image Chart
1990 12 2 00 14.2 135.9 1002 0 2 Image Chart
1990 12 2 06 14.3 135.0 1002 0 2 Image Chart
1990 12 2 12 13.9 133.8 1004 0 2 Image Chart
1990 12 2 18 13.3 132.6 1004 0 2 Image Chart
1990 12 3 00 12.5 131.9 1006 0 2 Image Chart
1990 12 3 06 11.5 131.2 1006 0 2 Image Chart
1990 12 3 12 10.8 130.7 1006 0 2 Image Chart
1990 12 3 18 10.0 130.0 1006 0 2 Image Chart
1990 12 4 00 10.0 129.5 1008 0 2 Image Chart
Japan Meteorological Agency Best Track Data | Correction Date : 1992-10-21
< Typhoon 199026 1990 Season Typhoon 199028 >

Help